Watkins Glen, NY

1:31 AM EDT on June 30, 2015 (GMT -0400)
Hungry Horse Ranch | | Change Station
CLOSE
Current Station
Personal Weather Station
Location: Montour Falls, NY
Elevation: 980 ft
Nearby Weather Stations

Elev 980 ft 42.31 °N, 76.83 °W | Updated 29 seconds ago

Overcast
Overcast
60.5 °F
Feels Like 60.5 °F
N
0.0
Wind Variable Wind from ESE
Gusts 0.0 mph

Today
High -- | Low -- °F
--% Chance of Precip.
Yesterday
High -- | Low -- °F
Precip. -- in
5:33 AM 8:48 PM
Waxing Gibbous, 96% visible
Pressure 29.93 in
Visibility 10.0 miles
Clouds Overcast 8500 ft
Dew Point 58 °F
Humidity 93%
Rainfall 0.00 in
Snow Depth Not available.
UV 0 out of 12
Pollen 1.40 out of 12
Air Quality Not available.
Flu Activity Sporadic
METAR KELM 300453Z AUTO 00000KT 10SM OVC085 17/15 A2994 RMK AO2 SLP134 T01670150 402440144

More Conditions Fewer Conditions

Pressure 29.93 in
Visibility 10.0 miles
Clouds Overcast 8500 ft
Dew Point 58 °F
Humidity 93%
Rainfall 0.00 in
Snow Depth Not available.
UV 0 out of 12
Pollen 1.40 out of 12
Air Quality Not available.
Flu Activity Sporadic
METAR KELM 300453Z AUTO 00000KT 10SM OVC085 17/15 A2994 RMK AO2 SLP134 T01670150 402440144

More Conditions Fewer Conditions

10-Day Weather Forecast

×

Almanac

Astronomy

Jun. 30, 2015 Rise Set
Actual Time
Civil Twilight
Nautical Twilight
Astronomical Twilight
Moon
Length of Visible Light
Length of Day
Tomorrow will be .
, % of the Moon is Illuminated

Today's Extremes

State Highs State Lows

Community

WunderPhotos

Upload Photos

1,833,970 photos uploaded!

WunderBlogs® & News

Nearby

Air Quality

  Air Quality AQ Index Pollutant
Not available.

Snow Depth

Station Depth Elevation

Earthquake Activity

City Distance Mag. Time & Date
Minimum magnitude displayed is 2.5.

Coastal Water Temperatures

Place Temperature

Stations

Nearby Weather Stations

Station Location Temp. Windchill Dew Point Humidity Wind Precip. Elev Updated Type